Time;durP1;ratioP1;P1;durP2;ratioP2;P2;SDS_P1;SDS_P2;PMS_P1;PMS_P2;Temp;Humidity;BMP_temperature;BMP_pressure;BME280_temperature;BME280_humidity;BME280_pressure;Samples;Min_cycle;Max_cycle;Signal;HPM_P1;HPM_P2
2021/08/14 00:00:49;;;;;;;13.13;9.87;;;22.70;99.90;;;;;;5061864;28;20636;-82
2021/08/14 00:03:14;;;;;;;12.30;10.00;;;22.80;99.90;;;;;;5058376;28;20194;-81
2021/08/14 00:05:39;;;;;;;11.10;9.87;;;22.70;99.90;;;;;;5058814;28;20168;-82
2021/08/14 00:08:05;;;;;;;14.97;11.00;;;22.70;99.90;;;;;;5058171;28;20203;-82
2021/08/14 00:10:31;;;;;;;11.20;9.90;;;22.70;99.90;;;;;;5058212;28;20191;-82
2021/08/14 00:12:56;;;;;;;15.40;10.67;;;22.70;99.90;;;;;;5058059;28;20160;-81
2021/08/14 00:15:22;;;;;;;11.37;10.20;;;22.70;99.90;;;;;;5058551;28;20160;-82
2021/08/14 00:17:48;;;;;;;11.03;9.80;;;22.60;99.90;;;;;;5057841;28;20160;-83
2021/08/14 00:20:14;;;;;;;14.13;10.97;;;22.50;99.90;;;;;;5057118;28;20200;-82
2021/08/14 00:22:39;;;;;;;17.77;11.13;;;22.40;99.90;;;;;;5057178;28;20413;-80
2021/08/14 00:25:06;;;;;;;13.07;10.57;;;22.40;99.90;;;;;;5056900;28;20183;-82
2021/08/14 00:27:32;;;;;;;16.73;10.97;;;22.40;99.90;;;;;;5057333;28;20266;-82
2021/08/14 00:29:57;;;;;;;10.60;9.50;;;22.30;99.90;;;;;;5057637;28;20390;-82
2021/08/14 00:32:23;;;;;;;12.00;10.70;;;22.40;99.90;;;;;;5057435;28;20198;-81
2021/08/14 00:34:48;;;;;;;13.90;11.60;;;22.30;99.90;;;;;;5057931;28;20168;-82
2021/08/14 00:37:14;;;;;;;13.13;11.67;;;22.30;99.90;;;;;;5044549;28;20647;-82
2021/08/14 00:39:39;;;;;;;13.77;9.93;;;22.40;99.90;;;;;;5037297;28;20259;-82
2021/08/14 00:42:06;;;;;;;10.97;9.40;;;22.30;99.90;;;;;;5037036;28;20505;-82
2021/08/14 00:44:33;;;;;;;11.73;10.53;;;22.20;99.90;;;;;;5036930;28;20164;-82
2021/08/14 00:46:59;;;;;;;13.13;11.40;;;22.10;99.90;;;;;;5037062;28;20446;-82
2021/08/14 00:49:25;;;;;;;17.87;10.60;;;22.00;99.90;;;;;;5039145;28;20876;-82
2021/08/14 00:51:50;;;;;;;14.37;10.60;;;22.00;99.90;;;;;;5041494;28;20447;-83
2021/08/14 00:54:16;;;;;;;12.57;11.30;;;21.90;99.90;;;;;;5041505;28;20655;-82
2021/08/14 00:56:43;;;;;;;14.83;9.70;;;21.90;99.90;;;;;;5041664;28;20164;-82
2021/08/14 00:59:08;;;;;;;11.63;10.40;;;21.90;99.90;;;;;;5041151;28;20181;-82
2021/08/14 01:01:34;;;;;;;12.47;10.87;;;21.90;99.90;;;;;;5041095;28;20410;-82
2021/08/14 01:04:02;;;;;;;11.10;9.90;;;21.90;99.90;;;;;;5041058;28;20165;-82
2021/08/14 01:06:28;;;;;;;15.27;11.90;;;22.00;99.90;;;;;;5000638;28;20193;-83
2021/08/14 01:08:55;;;;;;;12.23;10.13;;;22.00;99.90;;;;;;5002865;28;20437;-80
2021/08/14 01:11:21;;;;;;;15.27;10.17;;;21.90;99.90;;;;;;5007797;28;20501;-78
2021/08/14 01:13:47;;;;;;;11.57;10.20;;;21.90;99.90;;;;;;5000966;28;20436;-79
2021/08/14 01:16:13;;;;;;;13.43;11.27;;;21.80;99.90;;;;;;5004266;28;20397;-80
2021/08/14 01:18:42;;;;;;;13.13;11.77;;;21.80;99.90;;;;;;5013632;28;20409;-80
2021/08/14 01:21:10;;;;;;;16.70;10.80;;;21.70;99.90;;;;;;5011975;28;20231;-80
2021/08/14 01:23:36;;;;;;;11.83;10.70;;;21.70;99.90;;;;;;5010693;28;20417;-79
2021/08/14 01:26:05;;;;;;;15.70;11.67;;;21.70;99.90;;;;;;5010669;28;20431;-80
2021/08/14 01:28:32;;;;;;;14.47;11.60;;;21.70;99.90;;;;;;4993882;28;20846;-80
2021/08/14 01:30:59;;;;;;;13.07;11.77;;;21.70;99.90;;;;;;5021776;28;20477;-82
2021/08/14 01:33:25;;;;;;;12.73;11.53;;;21.70;99.90;;;;;;5041402;28;20490;-82
2021/08/14 01:35:52;;;;;;;15.10;12.50;;;21.70;99.90;;;;;;5041169;28;20398;-82
2021/08/14 01:38:17;;;;;;;13.43;12.13;;;21.60;99.90;;;;;;5040228;28;20410;-82
2021/08/14 01:40:43;;;;;;;13.83;12.43;;;21.60;99.90;;;;;;5040116;28;20404;-82
2021/08/14 01:43:08;;;;;;;14.90;12.23;;;21.60;99.90;;;;;;5039792;28;20214;-80
2021/08/14 01:45:34;;;;;;;15.70;12.97;;;21.60;99.90;;;;;;5045357;28;20164;-79
2021/08/14 01:48:00;;;;;;;14.17;10.93;;;21.50;99.90;;;;;;5052156;28;20264;-79
2021/08/14 01:50:25;;;;;;;18.10;13.10;;;21.50;99.90;;;;;;5050834;28;20160;-79
2021/08/14 01:52:53;;;;;;;14.30;11.70;;;21.50;99.90;;;;;;5042970;28;20157;-82
2021/08/14 01:55:19;;;;;;;14.67;12.90;;;21.40;99.90;;;;;;5040884;28;20237;-81
2021/08/14 01:57:45;;;;;;;13.20;11.80;;;21.40;99.90;;;;;;5039920;28;20466;-82
2021/08/14 02:00:17;;;;;;;16.07;12.17;;;21.40;99.90;;;;;;5040147;28;20252;-81
2021/08/14 02:02:42;;;;;;;12.77;11.47;;;21.30;99.90;;;;;;4979356;28;20194;-82
2021/08/14 02:05:08;;;;;;;17.73;14.03;;;21.10;99.90;;;;;;4979358;28;20416;-81
2021/08/14 02:07:34;;;;;;;13.20;11.03;;;21.20;99.90;;;;;;4978462;28;20678;-81
2021/08/14 02:09:59;;;;;;;13.53;12.10;;;21.30;99.90;;;;;;4978603;28;20600;-82
2021/08/14 02:12:25;;;;;;;17.13;13.60;;;21.10;99.90;;;;;;4978361;28;20314;-82
2021/08/14 02:14:50;;;;;;;19.43;12.77;;;21.10;99.90;;;;;;4977882;28;20170;-82
2021/08/14 02:17:16;;;;;;;14.10;11.23;;;21.20;99.90;;;;;;4978726;28;20218;-82
2021/08/14 02:19:41;;;;;;;13.10;11.70;;;20.30;99.90;;;;;;4978423;28;20278;-82
2021/08/14 02:22:07;;;;;;;14.63;11.93;;;20.00;99.90;;;;;;4978442;28;20433;-81
2021/08/14 02:24:34;;;;;;;14.27;12.80;;;19.50;99.90;;;;;;4978534;28;20171;-81
2021/08/14 02:27:00;;;;;;;14.43;13.07;;;19.60;99.90;;;;;;4977748;28;20167;-81
2021/08/14 02:29:26;;;;;;;14.80;13.30;;;19.50;99.90;;;;;;4977873;28;20410;-81
2021/08/14 02:31:51;;;;;;;15.30;13.70;;;19.50;99.90;;;;;;4977954;28;20453;-81
2021/08/14 02:34:17;;;;;;;19.50;13.50;;;19.30;99.90;;;;;;5024296;28;20546;-82
2021/08/14 02:36:42;;;;;;;17.57;13.77;;;19.40;99.90;;;;;;5038784;28;20232;-81
2021/08/14 02:39:08;;;;;;;15.90;14.13;;;19.50;99.90;;;;;;5021637;28;20165;-81
2021/08/14 02:41:33;;;;;;;15.30;12.40;;;19.60;99.90;;;;;;5039132;28;20165;-82
2021/08/14 02:43:59;;;;;;;15.30;13.70;;;19.50;99.90;;;;;;5038638;28;20564;-82
2021/08/14 02:46:24;;;;;;;22.07;15.10;;;19.20;99.90;;;;;;5039184;28;20161;-82
2021/08/14 02:48:50;;;;;;;19.33;16.20;;;19.30;99.90;;;;;;5038436;28;20176;-82
2021/08/14 02:51:16;;;;;;;17.77;15.90;;;19.40;99.90;;;;;;5038359;28;20215;-82
2021/08/14 02:53:41;;;;;;;18.33;15.60;;;19.60;99.90;;;;;;5020670;28;20157;-80
2021/08/14 02:56:07;;;;;;;17.00;14.00;;;19.60;99.90;;;;;;5038473;28;20188;-82
2021/08/14 02:58:33;;;;;;;23.23;14.70;;;19.60;99.90;;;;;;5038669;28;20176;-82
2021/08/14 03:00:58;;;;;;;15.07;13.50;;;19.60;99.90;;;;;;5038308;28;20168;-81
2021/08/14 03:03:24;;;;;;;13.70;12.27;;;19.60;99.90;;;;;;5038056;28;20165;-81
2021/08/14 03:05:49;;;;;;;14.83;13.17;;;19.60;99.90;;;;;;5039327;28;20172;-80
2021/08/14 03:08:15;;;;;;;13.23;11.73;;;19.60;99.90;;;;;;5050417;28;20291;-79
2021/08/14 03:10:41;;;;;;;14.50;13.00;;;19.60;99.90;;;;;;5048742;28;20192;-80
2021/08/14 03:13:08;;;;;;;16.10;14.43;;;19.70;99.90;;;;;;5041072;28;20621;-81
2021/08/14 03:15:34;;;;;;;15.00;13.37;;;19.90;99.90;;;;;;5038253;28;20392;-82
2021/08/14 03:17:59;;;;;;;19.03;12.87;;;20.00;99.90;;;;;;5020547;28;20406;-82
2021/08/14 03:20:25;;;;;;;13.57;11.30;;;20.10;99.90;;;;;;5038508;28;20242;-81
2021/08/14 03:22:50;;;;;;;17.63;12.33;;;20.20;99.90;;;;;;5037848;28;20252;-81
2021/08/14 03:25:16;;;;;;;16.23;13.07;;;20.20;99.90;;;;;;5038312;28;20169;-82
2021/08/14 03:27:41;;;;;;;15.40;13.80;;;20.20;99.90;;;;;;5038063;28;20161;-82
2021/08/14 03:30:08;;;;;;;23.30;13.33;;;20.20;99.90;;;;;;5037996;28;20164;-80
2021/08/14 03:32:34;;;;;;;14.50;11.43;;;20.30;99.90;;;;;;5020120;28;20697;-82
2021/08/14 03:34:59;;;;;;;14.50;12.70;;;20.30;99.90;;;;;;5037958;28;20392;-82
2021/08/14 03:37:25;;;;;;;14.00;12.00;;;20.30;99.90;;;;;;5037798;28;20266;-82
2021/08/14 03:39:50;;;;;;;16.20;13.37;;;20.30;99.90;;;;;;5038215;28;20201;-82
2021/08/14 03:42:16;;;;;;;14.53;12.27;;;20.30;99.90;;;;;;5037305;28;20164;-82
2021/08/14 03:44:41;;;;;;;19.73;12.43;;;20.10;99.90;;;;;;5037713;28;20160;-82
2021/08/14 03:47:07;;;;;;;14.27;12.07;;;20.20;99.90;;;;;;5037861;28;20512;-82
2021/08/14 03:49:32;;;;;;;16.20;12.67;;;20.20;99.90;;;;;;5037972;28;20164;-82
2021/08/14 03:51:58;;;;;;;16.03;14.30;;;20.20;99.90;;;;;;5037743;28;20609;-82
2021/08/14 03:54:23;;;;;;;12.57;11.33;;;20.20;99.90;;;;;;5037626;28;20172;-82
2021/08/14 03:56:49;;;;;;;15.63;14.10;;;20.20;99.90;;;;;;5037705;28;20168;-82
2021/08/14 03:59:15;;;;;;;15.07;13.40;;;20.20;99.90;;;;;;5037469;28;20195;-81
2021/08/14 04:01:40;;;;;;;17.07;13.13;;;20.10;99.90;;;;;;5037498;28;20164;-82
2021/08/14 04:04:06;;;;;;;13.27;11.93;;;20.10;99.90;;;;;;5019683;28;20163;-82
2021/08/14 04:06:31;;;;;;;16.60;12.87;;;20.10;99.90;;;;;;5036900;28;20165;-82
2021/08/14 04:08:57;;;;;;;18.10;13.20;;;20.10;99.90;;;;;;5037223;28;20189;-83
2021/08/14 04:11:22;;;;;;;13.47;12.07;;;20.10;99.90;;;;;;5037521;28;20216;-82
2021/08/14 04:13:48;;;;;;;15.73;10.50;;;19.30;99.90;;;;;;5036959;28;20212;-82
2021/08/14 04:16:13;;;;;;;12.23;10.50;;;19.10;99.90;;;;;;5037335;28;20508;-81
2021/08/14 04:18:39;;;;;;;19.50;12.53;;;18.80;99.90;;;;;;5037014;28;20252;-81
2021/08/14 04:21:05;;;;;;;12.93;11.23;;;18.70;99.90;;;;;;5037403;28;20188;-82
2021/08/14 04:23:33;;;;;;;12.67;11.47;;;18.70;99.90;;;;;;5019737;28;20163;-81
2021/08/14 04:25:58;;;;;;;12.87;11.57;;;18.80;99.90;;;;;;5037263;28;20402;-82
2021/08/14 04:28:24;;;;;;;11.77;10.37;;;18.90;99.90;;;;;;5037173;28;20860;-81
2021/08/14 04:30:49;;;;;;;13.17;11.03;;;19.00;99.90;;;;;;5037041;28;20188;-83
2021/08/14 04:33:15;;;;;;;12.23;11.03;;;18.80;99.90;;;;;;5037180;28;20160;-81
2021/08/14 04:35:40;;;;;;;17.00;11.30;;;18.60;99.90;;;;;;5036997;28;20161;-82
2021/08/14 04:38:06;;;;;;;11.57;10.00;;;18.60;99.90;;;;;;5036936;28;20239;-82
2021/08/14 04:40:31;;;;;;;12.77;11.27;;;18.40;99.90;;;;;;5037221;28;20161;-82
2021/08/14 04:42:57;;;;;;;12.57;10.13;;;18.50;99.90;;;;;;5037836;28;20558;-83
2021/08/14 04:45:24;;;;;;;11.87;10.67;;;18.40;99.90;;;;;;5037699;28;20165;-81
2021/08/14 04:47:50;;;;;;;14.13;11.27;;;18.60;99.90;;;;;;5037633;28;20211;-82
2021/08/14 04:50:16;;;;;;;12.43;11.20;;;18.60;99.90;;;;;;5037215;28;20460;-82
2021/08/14 04:52:42;;;;;;;11.27;10.20;;;18.60;99.90;;;;;;5037571;28;20439;-82
2021/08/14 04:55:08;;;;;;;21.63;14.57;;;18.60;99.90;;;;;;5037196;28;20400;-83
2021/08/14 04:57:34;;;;;;;17.73;15.83;;;18.90;99.90;;;;;;5037336;28;20172;-82
2021/08/14 04:59:59;;;;;;;18.63;16.70;;;19.30;99.90;;;;;;5037117;28;20477;-82
2021/08/14 05:02:25;;;;;;;21.33;16.10;;;19.50;99.90;;;;;;5037353;28;20247;-83
2021/08/14 05:04:50;;;;;;;21.10;15.10;;;19.60;99.90;;;;;;5037739;28;20172;-82
2021/08/14 05:07:16;;;;;;;23.67;18.50;;;19.60;99.90;;;;;;5038229;28;20165;-82
2021/08/14 05:09:43;;;;;;;29.10;19.17;;;19.70;99.90;;;;;;5040724;28;20567;-82
2021/08/14 05:12:09;;;;;;;23.93;18.00;;;19.80;99.90;;;;;;5044602;28;20482;-82
2021/08/14 05:14:35;;;;;;;20.10;14.90;;;19.60;99.90;;;;;;5037419;28;20391;-81
2021/08/14 05:17:01;;;;;;;22.27;17.00;;;19.50;99.90;;;;;;5037097;28;20406;-81
2021/08/14 05:19:26;;;;;;;18.40;15.80;;;19.50;99.90;;;;;;5037152;28;20614;-82
2021/08/14 05:21:52;;;;;;;12.53;11.20;;;19.40;99.90;;;;;;5037163;28;20196;-82
2021/08/14 05:24:17;;;;;;;17.30;14.57;;;19.10;99.90;;;;;;5036710;28;20161;-81
2021/08/14 05:26:43;;;;;;;22.43;17.20;;;19.30;99.90;;;;;;5018979;28;20511;-82
2021/08/14 05:29:09;;;;;;;24.80;17.37;;;19.60;99.90;;;;;;5036600;28;20168;-82
2021/08/14 05:31:34;;;;;;;32.77;17.13;;;19.80;99.90;;;;;;5036425;28;20168;-82
2021/08/14 05:34:02;;;;;;;23.70;17.60;;;20.00;99.90;;;;;;5019808;28;20204;-80
2021/08/14 05:36:29;;;;;;;24.23;16.90;;;20.00;99.90;;;;;;5049349;28;20239;-79
2021/08/14 05:38:54;;;;;;;22.40;15.80;;;19.80;99.90;;;;;;5049927;28;20457;-82
2021/08/14 05:41:20;;;;;;;19.00;16.00;;;19.50;99.90;;;;;;5040396;28;20435;-82
2021/08/14 05:43:45;;;;;;;18.87;16.10;;;19.40;99.90;;;;;;5040765;28;20548;-82
2021/08/14 05:46:11;;;;;;;21.10;15.27;;;19.50;99.90;;;;;;5040427;28;20618;-82
2021/08/14 05:48:37;;;;;;;23.20;19.10;;;19.70;99.90;;;;;;5040635;28;20170;-82
2021/08/14 05:51:03;;;;;;;24.53;17.70;;;19.40;99.90;;;;;;5042027;28;20511;-82
2021/08/14 05:53:29;;;;;;;21.20;16.90;;;19.40;99.90;;;;;;5041341;28;20461;-82
2021/08/14 05:55:54;;;;;;;21.20;17.80;;;19.50;99.90;;;;;;5042274;28;20399;-80
2021/08/14 05:58:20;;;;;;;18.50;13.47;;;19.70;99.90;;;;;;5048758;28;20164;-80
2021/08/14 06:00:45;;;;;;;20.33;13.13;;;19.60;99.90;;;;;;5049227;28;20394;-80
2021/08/14 06:03:11;;;;;;;16.13;13.20;;;19.40;99.90;;;;;;5052996;28;20176;-80
2021/08/14 06:05:37;;;;;;;21.10;13.60;;;19.70;99.90;;;;;;5051684;28;20184;-80
2021/08/14 06:08:02;;;;;;;23.23;17.20;;;19.70;99.90;;;;;;5051391;28;20260;-80
2021/08/14 06:10:28;;;;;;;24.70;17.87;;;19.90;99.90;;;;;;5049851;28;20174;-80
2021/08/14 06:12:53;;;;;;;21.10;17.80;;;20.20;99.90;;;;;;5049047;28;20228;-79
2021/08/14 06:15:19;;;;;;;21.40;18.03;;;20.30;99.90;;;;;;5050843;28;20157;-80
2021/08/14 06:17:44;;;;;;;19.87;17.10;;;20.30;99.90;;;;;;5043921;28;20161;-82
2021/08/14 06:20:12;;;;;;;21.10;17.20;;;20.00;99.90;;;;;;5039771;28;20618;-82
2021/08/14 06:22:39;;;;;;;22.10;18.10;;;19.50;99.90;;;;;;5039660;28;20192;-82
2021/08/14 06:25:06;;;;;;;26.63;17.70;;;19.50;99.90;;;;;;5039622;28;20463;-82
2021/08/14 06:27:31;;;;;;;23.27;17.20;;;19.70;99.90;;;;;;5039153;28;20479;-82
2021/08/14 06:29:57;;;;;;;22.57;16.97;;;20.10;99.90;;;;;;5039445;28;20816;-82
2021/08/14 06:32:22;;;;;;;27.20;17.67;;;20.20;99.90;;;;;;5040222;28;20165;-82
2021/08/14 06:34:48;;;;;;;25.73;19.77;;;19.80;99.90;;;;;;5039226;28;20168;-82
2021/08/14 06:37:13;;;;;;;23.83;19.20;;;19.40;99.90;;;;;;5043791;28;20231;-82
2021/08/14 06:39:39;;;;;;;23.90;19.73;;;19.50;99.90;;;;;;5059333;28;20164;-82
2021/08/14 06:42:05;;;;;;;27.00;19.40;;;19.70;99.90;;;;;;5059450;28;20280;-82
2021/08/14 06:44:30;;;;;;;28.70;19.80;;;20.10;99.90;;;;;;5059475;28;20513;-82
2021/08/14 06:46:56;;;;;;;26.73;19.80;;;20.40;99.90;;;;;;5059293;28;20490;-82
2021/08/14 06:49:22;;;;;;;25.73;18.33;;;20.70;99.90;;;;;;5059487;28;20153;-82
2021/08/14 06:51:48;;;;;;;31.83;20.97;;;20.60;99.90;;;;;;5059414;28;20161;-82
2021/08/14 06:54:13;;;;;;;34.27;22.33;;;19.80;99.90;;;;;;5059844;28;20279;-82
2021/08/14 06:56:39;;;;;;;30.57;22.23;;;19.60;99.90;;;;;;5059653;28;20403;-82
2021/08/14 06:59:04;;;;;;;24.90;19.73;;;19.50;99.90;;;;;;5059529;28;20164;-82
2021/08/14 07:01:30;;;;;;;24.27;20.27;;;19.40;99.90;;;;;;5059208;28;20192;-82
2021/08/14 07:03:55;;;;;;;28.83;21.30;;;19.50;99.90;;;;;;5059632;28;20159;-82
2021/08/14 07:06:24;;;;;;;32.03;22.03;;;19.60;99.90;;;;;;5058854;28;20647;-82
2021/08/14 07:08:50;;;;;;;37.10;24.27;;;19.30;99.90;;;;;;5059599;28;20206;-82
2021/08/14 07:11:17;;;;;;;34.77;23.57;;;19.30;99.90;;;;;;5059181;28;20494;-82
2021/08/14 07:13:43;;;;;;;31.13;22.70;;;19.20;99.90;;;;;;5062419;28;20714;-82
2021/08/14 07:16:09;;;;;;;32.87;22.80;;;19.20;99.90;;;;;;5060161;28;20525;-82
2021/08/14 07:18:34;;;;;;;39.40;22.37;;;19.30;99.90;;;;;;5070013;28;20402;-82
2021/08/14 07:21:02;;;;;;;32.60;23.47;;;19.40;99.90;;;;;;5066297;28;20196;-81
2021/08/14 07:23:28;;;;;;;31.23;21.57;;;19.60;99.90;;;;;;5069494;28;20179;-83
2021/08/14 07:25:54;;;;;;;34.97;23.70;;;19.60;99.90;;;;;;5067854;28;20402;-80
2021/08/14 07:28:19;;;;;;;34.10;23.63;;;19.80;99.90;;;;;;5066887;28;20164;-79
2021/08/14 07:30:46;;;;;;;28.53;21.33;;;19.50;99.90;;;;;;5060577;28;20164;-82
2021/08/14 07:33:13;;;;;;;24.13;18.93;;;19.70;99.90;;;;;;5058991;28;20168;-82
2021/08/14 07:35:38;;;;;;;25.47;19.93;;;19.90;99.90;;;;;;5058788;28;20444;-82
2021/08/14 07:38:04;;;;;;;30.73;22.87;;;20.20;99.90;;;;;;5038388;28;20605;-82
2021/08/14 07:40:29;;;;;;;29.10;19.27;;;20.10;99.90;;;;;;5038741;28;20271;-82
2021/08/14 07:42:57;;;;;;;23.10;19.90;;;20.10;99.90;;;;;;5038144;28;20169;-83
2021/08/14 07:45:25;;;;;;;25.10;19.80;;;20.10;99.90;;;;;;5038234;28;20188;-82
2021/08/14 07:47:51;;;;;;;25.57;19.47;;;20.30;99.90;;;;;;5038423;28;20410;-82
2021/08/14 07:50:20;;;;;;;22.07;18.80;;;20.50;99.90;;;;;;5038357;28;20395;-82
2021/08/14 07:52:46;;;;;;;24.57;19.77;;;20.50;99.90;;;;;;5038534;28;20458;-82
2021/08/14 07:55:12;;;;;;;22.00;17.40;;;20.70;99.90;;;;;;5037747;28;20849;-82
2021/08/14 07:57:40;;;;;;;19.43;17.30;;;20.70;99.90;;;;;;5037590;28;20403;-82
2021/08/14 08:00:06;;;;;;;20.90;18.60;;;20.90;99.90;;;;;;5037839;28;20399;-82
2021/08/14 08:02:32;;;;;;;18.80;16.40;;;21.00;99.90;;;;;;5038183;28;20447;-82
2021/08/14 08:04:57;;;;;;;17.83;14.20;;;21.10;99.90;;;;;;5037616;28;20483;-82
2021/08/14 08:07:22;;;;;;;24.90;22.40;;;21.30;99.90;;;;;;5036783;28;20157;-83
2021/08/14 08:09:48;;;;;;;19.50;15.23;;;21.60;99.90;;;;;;5020681;28;20235;-83
2021/08/14 08:12:13;;;;;;;21.03;15.47;;;21.90;99.90;;;;;;5037891;28;20203;-82
2021/08/14 08:14:39;;;;;;;18.10;15.17;;;21.90;99.90;;;;;;5037187;28;20173;-83
2021/08/14 08:17:05;;;;;;;17.00;14.00;;;22.10;99.90;;;;;;5037863;28;20218;-82
2021/08/14 08:19:30;;;;;;;18.20;14.50;;;21.90;99.90;;;;;;5038452;28;20217;-82
2021/08/14 08:21:57;;;;;;;18.43;14.70;;;22.20;99.90;;;;;;5036987;28;20196;-82
2021/08/14 08:24:22;;;;;;;15.00;13.60;;;22.50;99.90;;;;;;5019924;28;20604;-81
2021/08/14 08:26:48;;;;;;;14.40;12.03;;;22.60;99.90;;;;;;5039020;28;20541;-84
2021/08/14 08:29:13;;;;;;;15.53;13.87;;;22.60;99.90;;;;;;5042011;28;20184;-84
2021/08/14 08:31:39;;;;;;;15.40;13.60;;;22.50;99.90;;;;;;5041666;28;20215;-83
2021/08/14 08:34:04;;;;;;;13.63;12.27;;;22.60;99.90;;;;;;5023924;28;20184;-83
2021/08/14 08:36:30;;;;;;;14.40;13.00;;;22.80;99.90;;;;;;5045320;28;20291;-83
2021/08/14 08:38:55;;;;;;;15.80;13.40;;;22.60;99.90;;;;;;5053818;28;20267;-83
2021/08/14 08:41:21;;;;;;;15.10;13.60;;;22.80;99.90;;;;;;5048753;28;20215;-83
2021/08/14 08:43:47;;;;;;;15.50;13.90;;;23.00;99.90;;;;;;5043522;28;20249;-84
2021/08/14 08:46:12;;;;;;;15.07;13.57;;;23.40;99.90;;;;;;5041779;28;20243;-84
2021/08/14 08:48:43;;;;;;;15.80;13.50;;;23.30;99.90;;;;;;5042116;28;20392;-84
2021/08/14 08:51:10;;;;;;;14.53;13.13;;;23.60;99.90;;;;;;5041830;28;20172;-83
2021/08/14 08:53:38;;;;;;;13.93;12.53;;;23.90;99.90;;;;;;5040415;28;20400;-84
2021/08/14 08:56:04;;;;;;;15.63;14.03;;;23.50;99.90;;;;;;5040669;28;20493;-84
2021/08/14 08:58:32;;;;;;;17.10;14.27;;;23.70;99.90;;;;;;5040947;28;20404;-84
2021/08/14 09:00:58;;;;;;;14.60;13.10;;;23.70;99.90;;;;;;5041575;28;20443;-84
2021/08/14 09:03:27;;;;;;;13.60;11.57;;;23.80;99.90;;;;;;5024720;28;20403;-84
2021/08/14 09:05:53;;;;;;;14.43;12.93;;;23.80;99.90;;;;;;5042324;28;20400;-84
2021/08/14 09:08:19;;;;;;;16.93;12.57;;;24.00;99.90;;;;;;5041131;28;20465;-84
2021/08/14 09:10:46;;;;;;;13.60;10.90;;;23.90;99.90;;;;;;5044308;28;20403;-84
2021/08/14 09:13:26;;;;;;;11.43;10.23;;;24.20;99.90;;;;;;5028504;28;20529;-84
2021/08/14 09:15:52;;;;;;;13.20;11.83;;;24.30;99.90;;;;;;5055787;28;20447;-81
2021/08/14 09:18:20;;;;;;;12.00;10.00;;;24.40;99.90;;;;;;5057876;28;20396;-81
2021/08/14 09:20:49;;;;;;;12.50;11.23;;;24.60;99.90;;;;;;5040080;28;20414;-82
2021/08/14 09:23:16;;;;;;;14.60;11.23;;;24.90;99.90;;;;;;5058759;28;20173;-82
2021/08/14 09:25:44;;;;;;;10.40;9.40;;;25.00;99.90;;;;;;5057765;28;20391;-81
2021/08/14 09:28:11;;;;;;;14.90;11.50;;;24.90;99.90;;;;;;5053567;28;20411;-84
2021/08/14 09:30:52;;;;;;;13.40;11.23;;;25.00;99.90;;;;;;5045769;28;20754;-84
2021/08/14 09:33:23;;;;;;;10.63;9.43;;;25.20;99.90;;;;;;5046124;28;20386;-84
2021/08/14 09:36:02;;;;;;;10.70;9.27;;;25.50;99.90;;;;;;5045085;28;20406;-83
2021/08/14 09:38:44;;;;;;;13.63;10.67;;;25.90;99.90;;;;;;5064873;28;20398;-82
2021/08/14 09:41:15;;;;;;;17.47;10.67;;;26.10;99.90;;;;;;5064522;28;20442;-83
2021/08/14 09:43:41;;;;;;;11.70;10.60;;;26.00;99.90;;;;;;5063834;28;20391;-84
2021/08/14 09:46:07;;;;;;;12.43;11.10;;;26.20;99.90;;;;;;5063597;28;20414;-84
2021/08/14 09:48:33;;;;;;;15.33;10.97;;;25.80;99.90;;;;;;5062831;28;20473;-83
2021/08/14 09:50:59;;;;;;;12.50;11.27;;;26.20;99.90;;;;;;5062931;28;20794;-83
2021/08/14 09:53:28;;;;;;;16.07;10.43;;;26.10;99.90;;;;;;5063907;28;20156;-83
2021/08/14 09:56:11;;;;;;;12.53;10.90;;;26.10;99.90;;;;;;5047819;28;20190;-84
2021/08/14 09:58:38;;;;;;;12.93;11.53;;;26.00;99.90;;;;;;5063966;28;20398;-84
2021/08/14 10:01:06;;;;;;;12.20;10.90;;;25.90;99.90;;;;;;5063530;28;20473;-84
2021/08/14 10:03:33;;;;;;;10.70;8.80;;;26.30;99.90;;;;;;5064203;28;20448;-83
2021/08/14 10:06:01;;;;;;;11.13;9.90;;;26.30;99.90;;;;;;5064326;28;20458;-85
2021/08/14 10:08:28;;;;;;;12.07;10.97;;;26.30;99.90;;;;;;5065194;28;20659;-84
2021/08/14 10:10:55;;;;;;;10.13;9.10;;;26.20;99.90;;;;;;5064927;28;20387;-81
2021/08/14 10:13:21;;;;;;;10.60;9.10;;;26.30;99.90;;;;;;5064843;28;20399;-84
2021/08/14 10:15:47;;;;;;;11.17;10.03;;;26.80;99.90;;;;;;5046691;28;20399;-83
2021/08/14 10:18:16;;;;;;;9.63;8.67;;;27.40;99.90;;;;;;5065108;28;20553;-84
2021/08/14 10:20:41;;;;;;;10.00;8.60;;;27.50;99.90;;;;;;5064605;28;20213;-85
2021/08/14 10:23:09;;;;;;;10.63;8.97;;;27.10;99.90;;;;;;5066090;28;20398;-82
2021/08/14 10:25:38;;;;;;;13.80;10.03;;;27.40;99.90;;;;;;5071400;28;20164;-83
2021/08/14 10:28:07;;;;;;;8.57;7.70;;;27.90;99.90;;;;;;5046142;28;20402;-84
2021/08/14 10:30:46;;;;;;;9.83;8.83;;;28.10;99.90;;;;;;5063878;28;20734;-84
2021/08/14 10:33:32;;;;;;;10.07;9.17;;;28.30;99.90;;;;;;5063643;28;20394;-84
2021/08/14 10:36:35;;;;;;;9.47;8.50;;;27.60;99.90;;;;;;5023578;28;20481;-83
2021/08/14 10:39:23;;;;;;;8.40;7.67;;;27.80;99.90;;;;;;5040787;28;20403;-83
2021/08/14 10:41:51;;;;;;;9.30;8.40;;;28.50;99.90;;;;;;5041773;28;20537;-83
2021/08/14 10:44:37;;;;;;;9.87;8.00;;;28.70;99.90;;;;;;5041778;28;20458;-84
2021/08/14 10:47:26;;;;;;;9.27;8.27;;;28.00;99.90;;;;;;5026517;28;20410;-84
2021/08/14 10:49:51;;;;;;;10.37;9.27;;;28.40;99.90;;;;;;5029122;28;20407;-83
2021/08/14 10:52:17;;;;;;;8.70;7.90;;;27.90;99.90;;;;;;5025808;28;20488;-83
2021/08/14 10:55:08;;;;;;;8.73;7.77;;;28.80;99.90;;;;;;5025228;28;20231;-84
2021/08/14 10:57:43;;;;;;;9.93;8.80;;;29.40;99.90;;;;;;5041640;28;20183;-83
2021/08/14 11:00:20;;;;;;;9.10;7.53;;;29.50;99.90;;;;;;5025382;28;20428;-84
2021/08/14 11:03:04;;;;;;;8.53;7.43;;;29.10;99.90;;;;;;5026228;28;20456;-84
2021/08/14 11:05:30;;;;;;;7.80;7.00;;;28.10;99.90;;;;;;5009394;28;20395;-85
2021/08/14 11:08:00;;;;;;;8.47;7.67;;;29.00;99.90;;;;;;5060000;28;20437;-83
2021/08/14 11:10:31;;;;;;;8.93;8.03;;;28.70;99.90;;;;;;5065852;28;20390;-83
2021/08/14 11:12:56;;;;;;;10.47;8.10;;;29.10;99.90;;;;;;5064672;28;20493;-85
2021/08/14 11:15:26;;;;;;;10.03;7.50;;;29.80;99.90;;;;;;5064794;28;20855;-82
2021/08/14 11:17:54;;;;;;;8.37;6.90;;;30.50;99.90;;;;;;5064201;28;20167;-83
2021/08/14 11:20:38;;;;;;;6.90;6.30;;;30.90;99.90;;;;;;5063497;28;20398;-85
2021/08/14 11:23:24;;;;;;;9.80;7.27;;;31.50;99.90;;;;;;5062866;28;20400;-84
2021/08/14 11:25:49;;;;;;;7.22;6.45;;;32.10;99.90;;;;;;5064035;28;20159;-85
2021/08/14 11:28:20;;;;;;;7.38;6.78;;;30.80;99.90;;;;;;5063166;28;20164;-85
2021/08/14 11:30:59;;;;;;;10.95;7.57;;;30.70;99.90;;;;;;5062123;28;20182;-84
2021/08/14 11:33:27;;;;;;;8.65;6.90;;;30.70;99.90;;;;;;5062260;28;20414;-83
2021/08/14 11:36:07;;;;;;;7.82;6.97;;;31.80;99.40;;;;;;5061451;28;20178;-83
2021/08/14 11:38:36;;;;;;;8.15;7.35;;;31.40;99.90;;;;;;5063081;28;20165;-85
2021/08/14 11:41:10;;;;;;;7.90;6.22;;;30.10;99.90;;;;;;5063602;28;20202;-84
2021/08/14 11:43:39;;;;;;;10.13;6.97;;;29.80;99.90;;;;;;5046548;28;20163;-83
2021/08/14 11:46:05;;;;;;;7.38;6.68;;;30.90;99.90;;;;;;5064443;28;20215;-83
2021/08/14 11:48:38;;;;;;;8.70;6.72;;;32.00;99.70;;;;;;5047123;28;20171;-82
2021/08/14 11:51:04;;;;;;;6.43;5.93;;;32.30;96.10;;;;;;5063481;28;20615;-84
2021/08/14 11:53:32;;;;;;;7.25;6.55;;;32.80;94.90;;;;;;5064147;28;20170;-85
2021/08/14 11:56:10;;;;;;;12.15;7.38;;;33.30;92.90;;;;;;5049632;28;20224;-83
2021/08/14 11:58:36;;;;;;;12.85;7.00;;;32.90;92.50;;;;;;5074323;28;20210;-84
2021/08/14 12:01:03;;;;;;;7.20;6.28;;;32.70;91.70;;;;;;5076026;28;20227;-84
2021/08/14 12:03:29;;;;;;;15.77;14.68;;;31.90;94.20;;;;;;5074679;28;20170;-84
2021/08/14 12:06:08;;;;;;;8.10;7.03;;;31.70;93.90;;;;;;5070701;28;20176;-84
2021/08/14 12:08:38;;;;;;;8.27;5.97;;;32.70;92.50;;;;;;5062752;28;20190;-84
2021/08/14 12:11:07;;;;;;;7.63;6.90;;;33.20;90.90;;;;;;5062411;28;20177;-83
2021/08/14 12:13:34;;;;;;;6.30;5.80;;;32.60;90.90;;;;;;5063046;28;20170;-84
2021/08/14 12:16:17;;;;;;;5.70;5.28;;;31.10;90.50;;;;;;5062746;28;20167;-84
2021/08/14 12:18:46;;;;;;;6.95;6.35;;;31.10;92.40;;;;;;5062751;28;20217;-84
2021/08/14 12:21:14;;;;;;;6.13;5.53;;;32.70;85.40;;;;;;5027625;28;20210;-84
2021/08/14 12:23:42;;;;;;;5.40;4.90;;;33.40;85.80;;;;;;5059941;28;20604;-84
2021/08/14 12:26:10;;;;;;;7.07;6.38;;;33.70;83.30;;;;;;5058765;28;20224;-83
2021/08/14 12:28:38;;;;;;;5.82;5.35;;;33.90;79.20;;;;;;5059536;28;20254;-84
2021/08/14 12:31:20;;;;;;;6.22;5.63;;;33.70;81.10;;;;;;5046581;28;20171;-83